Time;durP1;ratioP1;P1;durP2;ratioP2;P2;SDS_P1;SDS_P2;PMS_P1;PMS_P2;Temp;Humidity;BMP_temperature;BMP_pressure;BME280_temperature;BME280_humidity;BME280_pressure;Samples;Min_cycle;Max_cycle;Signal;HPM_P1;HPM_P2
2021/12/20 00:02:20;;;;;;;6.90;1.70;;;8.30;99.90;;;;;;5075709;28;20291;-54
2021/12/20 00:04:51;;;;;;;5.57;1.50;;;8.10;99.90;;;;;;5075577;28;20205;-54
2021/12/20 00:07:19;;;;;;;6.17;1.73;;;8.00;99.90;;;;;;5071110;28;20349;-54
2021/12/20 00:09:46;;;;;;;5.87;1.53;;;8.10;99.90;;;;;;5074546;28;20238;-51
2021/12/20 00:12:13;;;;;;;7.43;1.97;;;8.10;99.90;;;;;;5078887;28;20202;-53
2021/12/20 00:14:40;;;;;;;4.03;1.50;;;8.20;99.90;;;;;;5075056;28;20246;-53
2021/12/20 00:17:07;;;;;;;11.23;1.87;;;8.20;99.90;;;;;;5076435;28;20198;-54
2021/12/20 00:19:34;;;;;;;5.63;1.70;;;8.30;99.90;;;;;;5067808;28;20207;-53
2021/12/20 00:22:00;;;;;;;11.40;1.60;;;8.30;99.90;;;;;;5069765;28;20201;-52
2021/12/20 00:24:27;;;;;;;5.03;1.10;;;8.30;99.90;;;;;;5065974;28;20194;-54
2021/12/20 00:26:54;;;;;;;7.67;1.50;;;8.30;99.90;;;;;;5064792;28;20235;-54
2021/12/20 00:29:21;;;;;;;6.47;0.93;;;8.30;99.90;;;;;;5082938;28;20838;-52
2021/12/20 00:31:48;;;;;;;6.97;1.37;;;8.30;99.90;;;;;;5070368;28;20212;-53
2021/12/20 00:34:15;;;;;;;5.77;1.33;;;8.30;99.90;;;;;;5072415;28;20602;-52
2021/12/20 00:36:42;;;;;;;6.97;1.50;;;8.30;99.90;;;;;;5069737;28;20285;-53
2021/12/20 00:41:54;;;;;;;9.83;1.60;;;8.30;99.90;;;;;;5069354;28;20213;-52
2021/12/20 00:44:21;;;;;;;3.23;1.20;;;8.30;99.90;;;;;;5066806;28;20280;-54
2021/12/20 00:46:53;;;;;;;6.73;1.40;;;8.30;99.90;;;;;;5071391;28;20898;-53
2021/12/20 00:49:20;;;;;;;4.87;1.30;;;8.20;99.90;;;;;;5070416;28;20268;-54
2021/12/20 00:51:47;;;;;;;9.83;1.43;;;8.30;99.90;;;;;;5069129;28;20236;-54
2021/12/20 00:54:14;;;;;;;9.27;1.63;;;8.30;99.90;;;;;;5072887;28;20656;-53
2021/12/20 00:56:41;;;;;;;8.73;1.50;;;8.30;99.90;;;;;;5062891;28;20199;-53
2021/12/20 00:59:08;;;;;;;12.63;1.60;;;8.40;99.90;;;;;;5073640;28;20277;-52
2021/12/20 01:01:34;;;;;;;9.80;1.83;;;8.50;99.90;;;;;;5067418;28;20312;-53
2021/12/20 01:04:03;;;;;;;8.97;1.73;;;8.30;99.90;;;;;;5072918;28;20237;-53
2021/12/20 01:06:30;;;;;;;12.40;1.73;;;8.30;99.90;;;;;;5073262;28;20626;-55
2021/12/20 01:08:57;;;;;;;13.20;1.67;;;8.30;99.90;;;;;;5074362;28;20620;-52
2021/12/20 01:11:27;;;;;;;7.97;1.60;;;8.30;99.90;;;;;;5071355;28;20224;-55
2021/12/20 01:13:55;;;;;;;11.40;2.37;;;8.30;99.90;;;;;;5069751;28;20233;-55
2021/12/20 01:16:31;;;;;;;11.87;1.67;;;8.20;99.90;;;;;;5069533;28;20657;-54
2021/12/20 01:18:58;;;;;;;9.13;1.90;;;8.20;99.90;;;;;;5072599;28;20280;-54
2021/12/20 01:21:26;;;;;;;8.07;1.70;;;8.30;99.90;;;;;;5067371;28;20288;-56
2021/12/20 01:23:53;;;;;;;8.20;1.47;;;8.30;99.90;;;;;;5069103;28;20209;-55
2021/12/20 01:26:20;;;;;;;9.73;1.77;;;8.40;99.90;;;;;;5072954;28;20235;-55
2021/12/20 01:28:47;;;;;;;8.90;1.60;;;8.40;99.90;;;;;;5073689;28;20218;-56
2021/12/20 01:31:14;;;;;;;10.13;1.63;;;8.40;99.90;;;;;;5065013;28;20207;-55
2021/12/20 01:33:41;;;;;;;5.93;1.53;;;8.40;99.90;;;;;;5068316;28;20214;-54
2021/12/20 01:36:07;;;;;;;16.47;2.57;;;8.30;99.90;;;;;;5070188;28;20655;-54
2021/12/20 01:38:35;;;;;;;4.20;1.47;;;8.30;99.90;;;;;;5069901;28;20192;-55
2021/12/20 01:41:02;;;;;;;6.80;1.57;;;8.40;99.90;;;;;;5067596;28;20320;-55
2021/12/20 01:43:28;;;;;;;11.37;1.63;;;8.40;99.90;;;;;;5092166;28;20202;-55
2021/12/20 01:45:55;;;;;;;14.70;2.40;;;8.30;99.90;;;;;;5070057;28;20699;-55
2021/12/20 01:48:23;;;;;;;6.40;1.47;;;8.30;99.90;;;;;;5071227;28;20853;-54
2021/12/20 01:51:16;;;;;;;6.20;1.37;;;8.30;99.90;;;;;;5073983;28;21284;-55
2021/12/20 01:53:39;;;;;;;8.20;2.60;;;8.30;99.90;;;;;;5069342;28;20677;-54
2021/12/20 01:56:07;;;;;;;9.80;1.97;;;8.40;99.90;;;;;;5072393;28;20238;-54
2021/12/20 01:58:34;;;;;;;12.07;2.10;;;8.50;99.90;;;;;;5069311;28;20927;-54
2021/12/20 02:03:39;;;;;;;11.70;1.97;;;8.30;99.90;;;;;;5070267;28;21123;-54
2021/12/20 02:06:13;;;;;;;9.93;1.37;;;8.30;99.90;;;;;;5074129;28;20214;-54
2021/12/20 02:08:40;;;;;;;12.97;2.30;;;8.40;99.90;;;;;;5072845;28;20340;-55
2021/12/20 02:11:09;;;;;;;10.77;1.50;;;8.30;99.90;;;;;;5074781;28;20221;-55
2021/12/20 02:13:38;;;;;;;8.47;1.90;;;8.30;99.90;;;;;;5067514;28;21722;-54
2021/12/20 02:16:06;;;;;;;10.77;1.80;;;8.30;99.90;;;;;;5069535;28;20596;-57
2021/12/20 02:18:35;;;;;;;16.17;2.13;;;8.20;99.90;;;;;;5071728;28;20200;-55
2021/12/20 02:21:02;;;;;;;13.33;2.30;;;8.30;99.90;;;;;;5074633;28;20278;-54
2021/12/20 02:23:29;;;;;;;11.17;1.90;;;8.30;99.90;;;;;;5072855;28;20213;-55
2021/12/20 02:25:56;;;;;;;10.37;1.80;;;8.20;99.90;;;;;;5074824;28;20653;-56
2021/12/20 02:28:24;;;;;;;11.40;1.70;;;8.20;99.90;;;;;;5070004;28;21850;-55
2021/12/20 02:38:48;;;;;;;10.43;2.13;;;8.20;99.90;;;;;;5070412;28;20212;-53
2021/12/20 02:41:26;;;;;;;7.40;1.77;;;8.20;99.90;;;;;;5073351;28;20227;-54
2021/12/20 02:43:56;;;;;;;12.00;2.07;;;8.30;99.90;;;;;;5072943;28;20623;-55
2021/12/20 02:49:00;;;;;;;8.87;1.90;;;8.20;99.90;;;;;;5064714;28;20232;-54
2021/12/20 02:51:28;;;;;;;13.33;4.03;;;8.30;99.90;;;;;;5070120;28;20222;-54
2021/12/20 02:53:56;;;;;;;13.13;2.13;;;8.10;99.90;;;;;;5073175;28;20211;-54
2021/12/20 02:56:24;;;;;;;8.00;1.23;;;8.10;99.90;;;;;;5072531;28;20698;-55
2021/12/20 02:58:51;;;;;;;11.90;1.40;;;8.00;99.90;;;;;;5064179;28;20686;-56
2021/12/20 03:01:19;;;;;;;12.13;1.50;;;8.10;99.90;;;;;;5069779;28;20725;-55
2021/12/20 03:03:48;;;;;;;11.80;1.90;;;8.10;99.90;;;;;;5064944;28;20276;-55
2021/12/20 03:06:19;;;;;;;7.83;1.57;;;8.10;99.90;;;;;;5068626;28;20311;-57
2021/12/20 03:08:50;;;;;;;9.60;1.57;;;8.10;99.90;;;;;;5070489;28;20869;-55
2021/12/20 03:11:19;;;;;;;17.40;2.47;;;8.10;99.90;;;;;;5062463;28;20355;-54
2021/12/20 03:13:49;;;;;;;16.20;1.67;;;8.10;99.90;;;;;;5068390;28;20742;-55
2021/12/20 03:16:16;;;;;;;11.03;2.43;;;8.10;99.90;;;;;;5070774;28;20623;-54
2021/12/20 03:18:43;;;;;;;14.67;2.30;;;8.10;99.90;;;;;;5066058;28;20378;-54
2021/12/20 03:21:10;;;;;;;10.63;1.70;;;8.00;99.90;;;;;;5066538;28;20688;-56
2021/12/20 03:23:37;;;;;;;8.93;1.80;;;7.90;99.90;;;;;;5073243;28;20540;-55
2021/12/20 03:26:04;;;;;;;19.30;2.23;;;7.80;99.90;;;;;;5068016;28;20228;-55
2021/12/20 03:28:31;;;;;;;9.50;2.57;;;7.90;99.90;;;;;;5070599;28;20209;-55
2021/12/20 03:30:58;;;;;;;8.33;1.53;;;8.00;99.90;;;;;;5065232;28;20319;-55
2021/12/20 03:33:25;;;;;;;8.93;1.97;;;7.90;99.90;;;;;;5068800;28;20237;-54
2021/12/20 03:35:52;;;;;;;10.77;2.03;;;8.00;99.90;;;;;;5065235;28;20586;-55
2021/12/20 03:38:19;;;;;;;10.17;2.03;;;7.90;99.90;;;;;;5066755;28;20573;-55
2021/12/20 03:40:46;;;;;;;11.17;1.90;;;7.80;99.90;;;;;;5065502;28;20303;-54
2021/12/20 03:43:13;;;;;;;10.60;1.87;;;7.70;99.90;;;;;;5070054;28;21940;-55
2021/12/20 03:45:42;;;;;;;10.57;1.87;;;7.80;99.90;;;;;;5069239;28;20227;-55
2021/12/20 03:48:09;;;;;;;13.17;2.47;;;8.00;99.90;;;;;;5068008;28;20654;-54
2021/12/20 03:50:36;;;;;;;9.13;1.80;;;8.00;99.90;;;;;;5047246;28;20224;-54
2021/12/20 03:53:03;;;;;;;11.30;1.77;;;8.00;99.90;;;;;;5064392;28;20245;-55
2021/12/20 03:55:30;;;;;;;15.07;2.00;;;8.00;99.90;;;;;;5056644;28;20219;-54
2021/12/20 03:57:56;;;;;;;16.00;2.37;;;8.00;99.90;;;;;;5067218;28;20617;-54
2021/12/20 04:00:23;;;;;;;7.83;1.77;;;8.10;99.90;;;;;;5067562;28;20208;-55
2021/12/20 04:02:52;;;;;;;11.77;2.03;;;8.00;99.90;;;;;;5069335;28;20363;-55
2021/12/20 04:05:19;;;;;;;12.17;2.23;;;8.00;99.90;;;;;;5066882;28;20201;-54
2021/12/20 04:07:45;;;;;;;10.67;2.07;;;8.10;99.90;;;;;;5070622;28;20217;-57
2021/12/20 04:10:12;;;;;;;12.33;2.20;;;8.10;99.90;;;;;;5062633;28;20258;-55
2021/12/20 04:12:40;;;;;;;9.97;2.03;;;8.00;99.90;;;;;;5066969;28;20283;-55
2021/12/20 04:15:08;;;;;;;13.53;1.90;;;8.20;99.90;;;;;;5067926;28;20260;-55
2021/12/20 04:17:35;;;;;;;13.30;1.97;;;8.10;99.90;;;;;;5066423;28;20222;-57
2021/12/20 04:20:04;;;;;;;16.50;2.27;;;8.10;99.90;;;;;;5066229;28;20195;-55
2021/12/20 04:22:30;;;;;;;12.77;2.33;;;8.10;99.90;;;;;;5068792;28;20209;-55
2021/12/20 04:24:57;;;;;;;13.43;2.20;;;8.10;99.90;;;;;;5068631;28;20668;-54
2021/12/20 04:27:24;;;;;;;6.23;1.90;;;8.20;99.90;;;;;;5064309;28;20639;-57
2021/12/20 04:29:53;;;;;;;10.67;2.00;;;8.10;99.90;;;;;;5066931;28;20297;-56
2021/12/20 04:32:20;;;;;;;7.33;1.50;;;8.00;99.90;;;;;;5067559;28;20317;-55
2021/12/20 04:34:48;;;;;;;11.57;2.13;;;8.10;99.90;;;;;;5065171;28;20860;-55
2021/12/20 04:37:15;;;;;;;16.87;2.27;;;8.10;99.90;;;;;;5067473;28;20227;-55
2021/12/20 04:39:42;;;;;;;20.40;2.67;;;8.10;99.90;;;;;;5070228;28;20715;-57
2021/12/20 04:42:09;;;;;;;10.77;1.83;;;8.10;99.90;;;;;;5064213;28;20250;-55
2021/12/20 04:44:36;;;;;;;9.43;2.10;;;8.20;99.90;;;;;;5061846;28;20388;-54
2021/12/20 04:47:04;;;;;;;14.10;1.80;;;8.20;99.90;;;;;;5064039;28;20555;-55
2021/12/20 04:49:31;;;;;;;10.87;2.37;;;8.00;99.90;;;;;;5064744;28;20206;-54
2021/12/20 04:51:58;;;;;;;11.97;1.97;;;8.10;99.90;;;;;;5064589;28;21475;-54
2021/12/20 04:54:25;;;;;;;11.63;2.20;;;8.00;99.90;;;;;;5062815;28;20514;-56
2021/12/20 04:56:52;;;;;;;11.17;2.27;;;8.00;99.90;;;;;;5058902;28;20202;-55
2021/12/20 04:59:19;;;;;;;6.37;1.53;;;8.10;99.90;;;;;;5074091;28;20206;-55
2021/12/20 05:01:46;;;;;;;14.93;2.70;;;8.00;99.90;;;;;;5063004;28;20536;-56
2021/12/20 05:04:13;;;;;;;11.27;2.57;;;8.00;99.90;;;;;;5063558;28;20237;-55
2021/12/20 05:06:40;;;;;;;12.97;2.20;;;8.10;99.90;;;;;;5063610;28;20209;-55
2021/12/20 05:09:07;;;;;;;9.13;1.67;;;8.10;99.90;;;;;;5071317;28;20213;-56
2021/12/20 05:11:35;;;;;;;11.93;1.83;;;8.10;99.90;;;;;;5068505;28;20638;-55
2021/12/20 05:14:02;;;;;;;16.03;2.33;;;8.00;99.90;;;;;;5069206;28;20381;-55
2021/12/20 05:16:29;;;;;;;12.13;2.20;;;8.00;99.90;;;;;;5067207;28;20223;-55
2021/12/20 05:18:56;;;;;;;12.10;2.27;;;8.00;99.90;;;;;;5065900;28;20229;-56
2021/12/20 05:21:23;;;;;;;9.77;2.03;;;8.00;99.90;;;;;;5069026;28;20280;-55
2021/12/20 05:23:52;;;;;;;15.13;1.87;;;8.00;99.90;;;;;;5074932;28;20242;-53
2021/12/20 05:26:19;;;;;;;13.90;1.93;;;7.90;99.90;;;;;;5066204;28;20672;-54
2021/12/20 05:28:46;;;;;;;15.43;2.17;;;8.00;99.90;;;;;;5074474;28;21104;-55
2021/12/20 05:31:13;;;;;;;16.23;1.90;;;8.10;99.90;;;;;;5068457;28;20325;-54
2021/12/20 05:33:40;;;;;;;13.53;2.10;;;8.10;99.90;;;;;;5072557;28;20948;-55
2021/12/20 05:36:07;;;;;;;12.30;2.13;;;8.20;99.90;;;;;;5070578;28;20228;-55
2021/12/20 05:38:47;;;;;;;10.33;1.67;;;8.10;99.90;;;;;;5069126;28;20207;-56
2021/12/20 05:41:14;;;;;;;13.47;2.13;;;8.20;99.90;;;;;;5070480;28;20640;-56
2021/12/20 05:43:40;;;;;;;9.53;1.97;;;8.10;99.90;;;;;;5067702;28;20515;-57
2021/12/20 05:46:11;;;;;;;9.20;2.17;;;8.10;99.90;;;;;;5074103;28;20202;-55
2021/12/20 05:48:38;;;;;;;11.07;2.43;;;8.10;99.90;;;;;;5085423;28;20348;-56
2021/12/20 05:51:05;;;;;;;8.57;1.97;;;8.10;99.90;;;;;;5067359;28;20619;-54
2021/12/20 05:53:32;;;;;;;13.67;2.20;;;8.00;99.90;;;;;;5068113;28;20250;-54
2021/12/20 05:55:59;;;;;;;13.47;2.07;;;8.00;99.90;;;;;;5072137;28;20299;-54
2021/12/20 05:58:26;;;;;;;10.87;2.00;;;8.10;99.90;;;;;;5069584;28;20238;-57
2021/12/20 06:00:53;;;;;;;10.90;2.07;;;8.10;99.90;;;;;;5080463;28;20634;-55
2021/12/20 06:03:20;;;;;;;14.40;2.27;;;8.10;99.90;;;;;;5072916;28;20231;-55
2021/12/20 06:05:47;;;;;;;12.63;2.23;;;8.00;99.90;;;;;;5070244;28;20191;-54
2021/12/20 06:08:14;;;;;;;11.33;2.27;;;8.00;99.90;;;;;;5067902;28;20298;-56
2021/12/20 06:10:40;;;;;;;15.20;2.63;;;7.90;99.90;;;;;;5072363;28;20721;-56
2021/12/20 06:13:07;;;;;;;14.43;2.40;;;7.90;99.90;;;;;;5067725;28;20697;-54
2021/12/20 06:15:34;;;;;;;12.37;2.30;;;8.00;99.90;;;;;;5061775;28;20280;-55
2021/12/20 06:18:01;;;;;;;16.23;2.27;;;8.00;99.90;;;;;;5068350;28;20305;-56
2021/12/20 06:20:28;;;;;;;10.83;1.67;;;8.00;99.90;;;;;;5063425;28;20228;-54
2021/12/20 06:22:55;;;;;;;8.90;2.47;;;7.90;99.90;;;;;;5073200;28;20199;-56
2021/12/20 06:25:22;;;;;;;8.50;2.10;;;8.00;99.90;;;;;;5071447;28;20669;-55
2021/12/20 06:27:49;;;;;;;10.90;2.10;;;7.90;99.90;;;;;;5069203;28;20507;-54
2021/12/20 06:30:16;;;;;;;11.63;2.17;;;8.00;99.90;;;;;;5066734;28;20204;-55
2021/12/20 06:32:44;;;;;;;16.57;1.90;;;8.00;99.90;;;;;;5072486;28;20346;-54
2021/12/20 06:35:32;;;;;;;12.53;2.13;;;8.00;99.90;;;;;;5068233;28;20217;-57
2021/12/20 06:38:00;;;;;;;7.97;2.13;;;8.00;99.90;;;;;;5066660;28;20378;-55
2021/12/20 06:40:31;;;;;;;10.67;1.97;;;8.10;99.90;;;;;;5065268;28;20837;-54
2021/12/20 06:42:58;;;;;;;7.53;1.97;;;7.80;99.90;;;;;;5071923;28;20252;-54
2021/12/20 06:45:29;;;;;;;10.67;2.20;;;7.80;99.90;;;;;;5068940;28;20208;-54
2021/12/20 06:47:56;;;;;;;16.70;2.27;;;7.70;99.90;;;;;;5069433;28;20199;-56
2021/12/20 06:50:23;;;;;;;14.83;2.60;;;7.80;99.90;;;;;;5066547;28;20214;-55
2021/12/20 06:52:50;;;;;;;12.20;2.53;;;7.90;99.90;;;;;;5070763;28;20298;-55
2021/12/20 06:55:17;;;;;;;9.87;1.97;;;7.90;99.90;;;;;;5075452;28;20265;-54
2021/12/20 06:57:44;;;;;;;10.10;1.93;;;7.80;99.90;;;;;;5060608;28;20217;-55
2021/12/20 07:00:12;;;;;;;9.23;2.17;;;7.90;99.90;;;;;;5064352;28;20210;-55
2021/12/20 07:02:39;;;;;;;14.03;2.83;;;7.90;99.90;;;;;;5070931;28;20291;-55
2021/12/20 07:05:06;;;;;;;18.57;2.37;;;7.80;99.90;;;;;;5066425;28;20647;-56
2021/12/20 07:07:34;;;;;;;13.43;2.37;;;7.80;99.90;;;;;;5068184;28;20221;-54
2021/12/20 07:10:03;;;;;;;12.73;2.30;;;7.80;99.90;;;;;;5069951;28;20305;-54
2021/12/20 07:12:32;;;;;;;9.57;1.80;;;7.90;99.90;;;;;;5072266;28;20262;-54
2021/12/20 07:14:59;;;;;;;11.30;2.07;;;8.00;99.90;;;;;;5067715;28;20269;-54
2021/12/20 07:17:25;;;;;;;6.97;2.50;;;8.00;99.90;;;;;;5067950;28;20234;-54
2021/12/20 07:19:52;;;;;;;18.00;5.07;;;8.00;99.90;;;;;;5068226;28;20205;-56
2021/12/20 07:22:19;;;;;;;20.33;5.93;;;8.10;99.90;;;;;;5070608;28;20334;-55
2021/12/20 07:24:46;;;;;;;8.23;2.10;;;8.00;99.90;;;;;;5066704;28;20291;-54
2021/12/20 07:27:13;;;;;;;12.83;2.07;;;7.90;99.90;;;;;;5066258;28;20323;-56
2021/12/20 07:29:41;;;;;;;15.07;2.63;;;7.90;99.90;;;;;;5071709;28;20206;-54
2021/12/20 07:32:08;;;;;;;10.33;2.23;;;8.00;99.90;;;;;;5070417;28;20223;-54
2021/12/20 07:34:35;;;;;;;13.97;2.77;;;8.10;99.90;;;;;;5070034;28;20198;-54
2021/12/20 07:37:02;;;;;;;11.27;2.20;;;8.10;99.90;;;;;;5065259;28;20200;-55
2021/12/20 07:39:28;;;;;;;14.17;2.20;;;8.00;99.90;;;;;;5063752;28;20284;-54
2021/12/20 07:41:55;;;;;;;8.20;2.00;;;8.00;99.90;;;;;;5064297;28;20278;-54
2021/12/20 07:44:23;;;;;;;10.07;1.83;;;8.00;99.90;;;;;;5067908;28;20290;-55
2021/12/20 07:46:50;;;;;;;10.07;2.40;;;7.90;99.90;;;;;;5074352;28;20288;-56
2021/12/20 07:49:17;;;;;;;12.13;1.90;;;7.90;99.90;;;;;;5067615;28;20224;-54
2021/12/20 07:51:45;;;;;;;6.70;1.83;;;7.90;99.90;;;;;;5065026;28;20196;-55
2021/12/20 07:54:12;;;;;;;9.77;1.77;;;7.80;99.90;;;;;;5060217;28;21061;-55
2021/12/20 07:56:40;;;;;;;12.33;2.23;;;7.80;99.90;;;;;;5063870;28;20253;-55
2021/12/20 07:59:07;;;;;;;6.60;1.97;;;7.90;99.90;;;;;;5061530;28;20238;-54
2021/12/20 08:01:34;;;;;;;15.50;2.30;;;7.90;99.90;;;;;;5060303;28;20293;-54
2021/12/20 08:04:02;;;;;;;6.67;1.70;;;7.90;99.90;;;;;;5057968;28;20249;-54
2021/12/20 08:06:29;;;;;;;14.77;2.33;;;7.90;99.90;;;;;;5053222;28;20944;-54
2021/12/20 08:08:56;;;;;;;6.47;1.73;;;7.90;99.90;;;;;;5066651;28;20211;-56
2021/12/20 08:11:24;;;;;;;8.07;1.83;;;7.90;99.90;;;;;;5058832;28;20200;-56
2021/12/20 08:41:13;;;;;;;12.77;2.70;;;7.80;99.90;;;;;;5127171;27;21116;-54
2021/12/20 08:43:40;;;;;;;12.80;2.30;;;7.90;99.90;;;;;;5135907;27;20199;-54
2021/12/20 08:46:09;;;;;;;12.00;2.60;;;7.90;99.90;;;;;;5139305;27;20281;-54
2021/12/20 08:48:37;;;;;;;9.37;2.40;;;7.90;99.90;;;;;;5127202;27;20211;-56
2021/12/20 08:51:05;;;;;;;8.27;2.30;;;7.90;99.90;;;;;;5137373;27;20197;-55
2021/12/20 08:53:32;;;;;;;13.93;2.17;;;7.80;99.90;;;;;;5137354;27;20330;-54
2021/12/20 08:55:59;;;;;;;9.20;2.00;;;7.80;99.90;;;;;;5132827;27;20230;-55
2021/12/20 08:58:26;;;;;;;9.10;2.03;;;7.80;99.90;;;;;;5128066;27;20230;-56
2021/12/20 09:00:54;;;;;;;14.70;2.40;;;7.90;99.90;;;;;;5132254;27;20229;-55
2021/12/20 09:03:22;;;;;;;12.47;1.90;;;7.90;99.90;;;;;;5134119;27;20325;-54
2021/12/20 09:05:50;;;;;;;10.67;2.60;;;7.90;99.90;;;;;;5138221;27;20201;-55
2021/12/20 09:08:18;;;;;;;11.30;2.10;;;8.00;99.90;;;;;;5125689;27;21153;-54
2021/12/20 09:10:46;;;;;;;7.63;2.13;;;7.90;99.90;;;;;;5133442;27;20211;-54
2021/12/20 09:13:13;;;;;;;4.97;1.90;;;7.90;99.90;;;;;;5136317;27;20214;-53
2021/12/20 09:15:40;;;;;;;10.63;2.23;;;7.90;99.90;;;;;;5135744;27;20921;-56
2021/12/20 09:18:08;;;;;;;8.47;1.80;;;7.90;99.90;;;;;;5135955;27;20202;-55
2021/12/20 09:20:37;;;;;;;15.30;2.67;;;8.00;99.90;;;;;;5133544;27;20685;-54
2021/12/20 09:23:05;;;;;;;10.77;2.03;;;8.00;99.90;;;;;;5143372;27;20627;-57
2021/12/20 09:25:34;;;;;;;9.20;2.60;;;7.90;99.90;;;;;;5143087;27;20707;-55
2021/12/20 09:28:04;;;;;;;7.87;2.47;;;7.90;99.90;;;;;;5141735;27;20660;-55
2021/12/20 09:30:31;;;;;;;6.00;2.03;;;8.00;99.90;;;;;;5137231;27;20289;-53
2021/12/20 09:33:00;;;;;;;8.17;2.00;;;8.00;99.90;;;;;;5100082;27;20227;-54
2021/12/20 09:35:28;;;;;;;9.97;1.90;;;7.90;99.90;;;;;;5104573;27;20206;-55
2021/12/20 09:37:55;;;;;;;7.60;2.20;;;7.80;99.90;;;;;;5103709;27;20688;-55
2021/12/20 09:40:32;;;;;;;10.57;1.90;;;7.80;99.90;;;;;;5102499;27;20237;-55
2021/12/20 09:43:02;;;;;;;12.00;1.97;;;7.70;99.90;;;;;;5092950;27;20195;-55
2021/12/20 09:45:29;;;;;;;9.50;2.07;;;7.70;99.90;;;;;;5095352;27;20611;-57
2021/12/20 09:47:57;;;;;;;9.87;2.27;;;7.70;99.90;;;;;;5088632;27;20232;-54
2021/12/20 09:50:24;;;;;;;10.60;2.00;;;7.90;99.90;;;;;;5090511;27;20760;-54
2021/12/20 09:52:51;;;;;;;7.40;2.13;;;7.90;99.90;;;;;;5087077;27;20252;-56
2021/12/20 09:55:19;;;;;;;13.63;2.27;;;8.00;99.90;;;;;;5091691;27;20637;-55
2021/12/20 09:57:49;;;;;;;11.07;1.77;;;8.10;99.90;;;;;;5084976;27;20724;-55
2021/12/20 10:00:19;;;;;;;14.03;3.33;;;8.00;99.90;;;;;;5094640;27;20213;-57
2021/12/20 10:02:48;;;;;;;4.63;1.57;;;8.00;99.90;;;;;;5082477;28;20206;-56
2021/12/20 10:05:17;;;;;;;4.80;1.30;;;8.00;99.90;;;;;;5082825;27;20210;-56
2021/12/20 10:07:51;;;;;;;6.90;1.83;;;8.00;99.90;;;;;;5086663;27;20208;-54
2021/12/20 10:10:40;;;;;;;9.13;1.47;;;8.10;99.90;;;;;;5089421;27;20217;-55
2021/12/20 10:13:18;;;;;;;11.33;2.27;;;8.10;99.90;;;;;;5080706;27;20204;-56
2021/12/20 10:15:45;;;;;;;6.10;1.30;;;8.10;99.90;;;;;;5086249;27;20309;-55
2021/12/20 10:18:13;;;;;;;6.63;1.80;;;8.20;99.90;;;;;;5087744;27;20282;-54
2021/12/20 10:20:42;;;;;;;10.27;1.87;;;8.20;99.90;;;;;;5088602;27;21776;-57
2021/12/20 10:23:14;;;;;;;8.30;1.63;;;8.30;99.90;;;;;;5088215;27;20288;-56
2021/12/20 10:25:42;;;;;;;7.47;1.70;;;8.30;99.90;;;;;;5091780;27;20278;-56
2021/12/20 10:28:11;;;;;;;6.73;1.70;;;8.30;99.90;;;;;;5087362;27;20246;-55
2021/12/20 10:30:46;;;;;;;4.83;1.47;;;8.30;99.90;;;;;;5091079;28;20278;-55
2021/12/20 10:33:18;;;;;;;7.63;2.00;;;8.40;99.90;;;;;;5081900;27;20740;-55
2021/12/20 10:35:49;;;;;;;8.03;1.63;;;8.40;99.90;;;;;;5091589;28;20757;-55
2021/12/20 10:38:37;;;;;;;8.83;1.97;;;8.30;99.90;;;;;;5093942;27;20227;-53
2021/12/20 10:41:28;;;;;;;11.13;1.70;;;8.50;99.90;;;;;;5093367;27;20930;-56
2021/12/20 10:44:00;;;;;;;6.83;1.60;;;8.40;99.90;;;;;;5093863;27;20213;-54
2021/12/20 10:46:34;;;;;;;12.20;2.07;;;8.50;99.90;;;;;;5088643;27;20202;-54
2021/12/20 10:49:05;;;;;;;10.57;2.70;;;8.60;99.90;;;;;;5095875;28;20714;-56
2021/12/20 10:51:41;;;;;;;8.20;1.77;;;8.50;99.90;;;;;;5091941;27;20200;-55
2021/12/20 10:54:12;;;;;;;7.33;1.73;;;8.40;99.90;;;;;;5092127;27;20194;-55
2021/12/20 10:56:57;;;;;;;11.33;1.80;;;8.50;99.90;;;;;;5092319;27;20200;-56
2021/12/20 10:59:30;;;;;;;7.63;1.70;;;8.60;99.90;;;;;;5093359;27;20187;-55
2021/12/20 11:04:51;;;;;;;7.43;1.90;;;8.70;99.90;;;;;;5092713;27;20322;-56
2021/12/20 11:09:52;;;;;;;9.10;1.70;;;8.50;99.90;;;;;;5084338;28;20228;-55
2021/12/20 11:12:32;;;;;;;8.57;2.10;;;8.50;99.90;;;;;;5101024;27;20216;-54
2021/12/20 11:15:08;;;;;;;8.13;1.30;;;8.50;99.90;;;;;;5089826;27;20196;-54
2021/12/20 11:17:36;;;;;;;4.23;1.10;;;8.50;99.90;;;;;;5084457;27;20232;-54
2021/12/20 11:20:04;;;;;;;3.97;1.37;;;8.50;99.90;;;;;;5091046;27;21069;-55
2021/12/20 11:22:32;;;;;;;4.47;1.57;;;8.50;99.90;;;;;;5087460;27;20307;-54
2021/12/20 11:25:06;;;;;;;7.50;1.07;;;8.50;99.90;;;;;;5089112;27;20243;-53
2021/12/20 11:27:42;;;;;;;10.40;1.90;;;8.50;99.90;;;;;;5084084;27;20227;-55
2021/12/20 11:30:17;;;;;;;8.87;1.67;;;8.60;99.90;;;;;;5091083;27;20275;-56
2021/12/20 11:32:46;;;;;;;3.27;0.97;;;8.50;99.90;;;;;;5087305;27;20355;-54
2021/12/20 11:35:15;;;;;;;3.10;1.13;;;8.40;99.90;;;;;;5093144;28;20741;-54
2021/12/20 11:37:42;;;;;;;7.63;1.40;;;8.50;99.90;;;;;;5089897;28;20194;-55
2021/12/20 11:40:11;;;;;;;9.37;1.73;;;8.40;99.90;;;;;;5092703;28;20567;-56
2021/12/20 11:42:37;;;;;;;9.07;1.50;;;8.50;99.90;;;;;;5089460;27;20261;-56
2021/12/20 11:45:07;;;;;;;6.40;1.33;;;8.50;99.90;;;;;;5102804;27;20197;-54
2021/12/20 11:47:44;;;;;;;9.37;2.30;;;8.40;99.90;;;;;;5085964;28;20197;-55
2021/12/20 11:50:13;;;;;;;10.53;3.40;;;8.60;99.90;;;;;;5091365;27;20310;-55
2021/12/20 11:52:43;;;;;;;8.13;2.17;;;8.70;99.90;;;;;;5090538;27;20212;-54
2021/12/20 11:55:29;;;;;;;7.57;2.33;;;8.80;99.90;;;;;;5093910;28;20260;-54
2021/12/20 11:58:27;;;;;;;5.93;1.27;;;8.70;99.90;;;;;;5088196;27;20634;-55
2021/12/20 12:00:56;;;;;;;5.60;1.13;;;8.60;99.90;;;;;;5093145;28;20269;-56
2021/12/20 12:03:24;;;;;;;8.37;1.67;;;8.70;99.90;;;;;;5089878;28;20206;-54
2021/12/20 12:06:11;;;;;;;6.93;1.93;;;8.70;99.90;;;;;;5090428;27;20210;-54
2021/12/20 12:08:52;;;;;;;5.93;2.17;;;8.70;99.90;;;;;;5086015;28;20195;-55
2021/12/20 12:11:25;;;;;;;13.87;2.00;;;8.70;99.90;;;;;;5093825;27;20282;-54
2021/12/20 12:14:05;;;;;;;6.57;2.33;;;8.80;99.90;;;;;;5085327;27;20952;-55
2021/12/20 12:17:04;;;;;;;6.63;1.40;;;8.80;99.90;;;;;;5089224;28;20290;-55
2021/12/20 12:19:51;;;;;;;7.30;1.97;;;9.00;99.90;;;;;;5086631;28;20288;-55
2021/12/20 12:22:36;;;;;;;6.40;1.37;;;9.50;99.90;;;;;;5088851;28;20214;-54
2021/12/20 12:25:15;;;;;;;8.77;1.60;;;9.50;99.90;;;;;;5086942;28;20217;-57
2021/12/20 12:27:44;;;;;;;6.73;1.43;;;9.70;99.90;;;;;;5088351;28;20632;-53
2021/12/20 12:30:13;;;;;;;9.83;1.47;;;9.90;99.90;;;;;;5077610;28;20314;-54
2021/12/20 12:32:54;;;;;;;2.63;1.37;;;10.30;99.90;;;;;;5084137;28;20658;-54
2021/12/20 12:35:41;;;;;;;13.13;1.50;;;10.50;99.90;;;;;;5086722;28;20198;-55
2021/12/20 12:38:46;;;;;;;5.70;1.27;;;11.00;99.90;;;;;;5092199;28;20205;-55
2021/12/20 12:41:18;;;;;;;7.67;1.67;;;11.00;99.90;;;;;;5062149;28;20205;-54
2021/12/20 12:43:47;;;;;;;4.70;1.27;;;11.40;99.90;;;;;;5093354;28;20288;-54
2021/12/20 12:46:14;;;;;;;8.33;2.10;;;11.30;99.90;;;;;;5090791;28;20232;-54
2021/12/20 12:48:47;;;;;;;9.80;1.80;;;11.60;99.90;;;;;;5087894;28;20221;-54
2021/12/20 12:51:20;;;;;;;6.30;1.60;;;11.90;99.90;;;;;;5093212;28;20297;-54
2021/12/20 12:53:53;;;;;;;6.80;2.07;;;11.80;99.90;;;;;;5094180;28;20206;-54
2021/12/20 12:56:26;;;;;;;9.97;2.17;;;11.60;99.90;;;;;;5087960;28;22387;-55
2021/12/20 12:59:12;;;;;;;5.70;1.90;;;11.60;99.90;;;;;;5087764;28;20694;-55
2021/12/20 13:01:49;;;;;;;15.10;3.10;;;11.70;99.90;;;;;;5105003;28;20199;-54
2021/12/20 13:04:16;;;;;;;6.80;2.13;;;11.70;99.90;;;;;;5090401;28;20668;-55
2021/12/20 13:06:44;;;;;;;9.43;2.10;;;11.60;99.90;;;;;;5093314;28;20194;-55
2021/12/20 13:09:11;;;;;;;8.13;1.80;;;11.60;99.90;;;;;;5092820;28;20714;-54
2021/12/20 13:11:38;;;;;;;4.97;2.03;;;11.60;99.90;;;;;;5088967;28;20300;-55
2021/12/20 13:14:14;;;;;;;7.10;1.60;;;11.40;99.90;;;;;;5092836;28;20233;-53
2021/12/20 13:16:58;;;;;;;10.07;2.73;;;10.90;99.90;;;;;;5089726;27;20272;-55
2021/12/20 13:19:30;;;;;;;8.60;2.30;;;11.00;99.90;;;;;;5096178;27;20291;-55
2021/12/20 13:22:03;;;;;;;6.50;1.70;;;10.70;99.90;;;;;;5096248;27;20842;-53
2021/12/20 13:24:30;;;;;;;9.03;1.93;;;10.40;99.90;;;;;;5097462;28;20569;-54
2021/12/20 13:27:07;;;;;;;8.20;1.93;;;10.00;99.90;;;;;;5091333;27;20261;-55
2021/12/20 13:29:35;;;;;;;13.33;1.87;;;9.80;99.90;;;;;;5095948;27;20260;-55
2021/12/20 13:32:05;;;;;;;11.90;2.60;;;9.90;99.90;;;;;;5092341;27;20507;-55
2021/12/20 13:34:32;;;;;;;12.93;2.10;;;9.70;99.90;;;;;;5089511;27;20209;-54
2021/12/20 13:37:07;;;;;;;9.93;2.33;;;9.50;99.90;;;;;;5073537;27;20637;-53
2021/12/20 13:39:35;;;;;;;14.00;2.60;;;9.50;99.90;;;;;;5099331;28;20630;-57
2021/12/20 13:42:08;;;;;;;12.73;2.37;;;9.50;99.90;;;;;;5096746;27;20254;-54
2021/12/20 13:44:35;;;;;;;8.37;2.37;;;9.40;99.90;;;;;;5098035;27;20672;-55
2021/12/20 13:47:06;;;;;;;13.03;2.47;;;9.40;99.90;;;;;;5088967;27;20873;-56
2021/12/20 13:49:33;;;;;;;11.70;2.77;;;9.30;99.90;;;;;;5097378;27;20893;-55
2021/12/20 13:52:06;;;;;;;16.87;3.07;;;9.00;99.90;;;;;;5091862;27;20308;-55